sensor_id;sensor_type;location;lat;lon;timestamp;P1;durP1;ratioP1;P2;durP2;ratioP2
43620;SDS011;29213;50.770;7.298;2022-08-03T00:02:11;2.90;;;2.00;;
43620;SDS011;29213;50.770;7.298;2022-08-03T00:04:36;2.80;;;1.85;;
43620;SDS011;29213;50.770;7.298;2022-08-03T00:07:01;3.20;;;2.08;;
43620;SDS011;29213;50.770;7.298;2022-08-03T00:09:27;3.33;;;2.05;;
43620;SDS011;29213;50.770;7.298;2022-08-03T00:11:52;3.42;;;1.88;;
43620;SDS011;29213;50.770;7.298;2022-08-03T00:14:18;3.70;;;2.10;;
43620;SDS011;29213;50.770;7.298;2022-08-03T00:16:43;3.20;;;2.00;;
43620;SDS011;29213;50.770;7.298;2022-08-03T00:19:08;3.00;;;1.95;;
43620;SDS011;29213;50.770;7.298;2022-08-03T00:21:34;3.38;;;2.10;;
43620;SDS011;29213;50.770;7.298;2022-08-03T00:23:59;3.15;;;1.90;;
43620;SDS011;29213;50.770;7.298;2022-08-03T00:26:25;3.35;;;2.00;;
43620;SDS011;29213;50.770;7.298;2022-08-03T00:28:50;3.72;;;2.00;;
43620;SDS011;29213;50.770;7.298;2022-08-03T00:31:16;2.85;;;1.80;;
43620;SDS011;29213;50.770;7.298;2022-08-03T00:33:41;3.58;;;2.05;;
43620;SDS011;29213;50.770;7.298;2022-08-03T00:36:07;3.92;;;2.28;;
43620;SDS011;29213;50.770;7.298;2022-08-03T00:38:32;3.13;;;2.20;;
43620;SDS011;29213;50.770;7.298;2022-08-03T00:40:57;4.07;;;2.10;;
43620;SDS011;29213;50.770;7.298;2022-08-03T00:43:26;3.17;;;1.90;;
43620;SDS011;29213;50.770;7.298;2022-08-03T00:45:52;3.65;;;2.10;;
43620;SDS011;29213;50.770;7.298;2022-08-03T00:48:18;3.22;;;2.15;;
43620;SDS011;29213;50.770;7.298;2022-08-03T00:50:44;3.78;;;2.00;;
43620;SDS011;29213;50.770;7.298;2022-08-03T00:53:11;3.38;;;2.13;;
43620;SDS011;29213;50.770;7.298;2022-08-03T00:55:37;3.85;;;2.17;;
43620;SDS011;29213;50.770;7.298;2022-08-03T00:58:03;3.60;;;2.17;;
43620;SDS011;29213;50.770;7.298;2022-08-03T01:00:31;4.28;;;2.35;;
43620;SDS011;29213;50.770;7.298;2022-08-03T01:02:57;3.35;;;2.10;;
43620;SDS011;29213;50.770;7.298;2022-08-03T01:05:23;3.22;;;2.10;;
43620;SDS011;29213;50.770;7.298;2022-08-03T01:07:59;3.30;;;2.20;;
43620;SDS011;29213;50.770;7.298;2022-08-03T01:10:38;3.88;;;2.25;;
43620;SDS011;29213;50.770;7.298;2022-08-03T01:15:49;3.20;;;2.10;;
43620;SDS011;29213;50.770;7.298;2022-08-03T01:18:31;2.88;;;1.88;;
43620;SDS011;29213;50.770;7.298;2022-08-03T01:21:06;3.78;;;2.30;;
43620;SDS011;29213;50.770;7.298;2022-08-03T01:26:58;2.90;;;2.00;;
43620;SDS011;29213;50.770;7.298;2022-08-03T01:32:20;3.15;;;2.22;;
43620;SDS011;29213;50.770;7.298;2022-08-03T01:38:48;3.90;;;2.25;;
43620;SDS011;29213;50.770;7.298;2022-08-03T01:40:46;4.93;;;2.13;;
43620;SDS011;29213;50.770;7.298;2022-08-03T01:43:15;5.10;;;2.45;;
43620;SDS011;29213;50.770;7.298;2022-08-03T01:45:42;2.90;;;2.08;;
43620;SDS011;29213;50.770;7.298;2022-08-03T01:48:09;3.72;;;2.20;;
43620;SDS011;29213;50.770;7.298;2022-08-03T01:50:40;4.22;;;2.30;;
43620;SDS011;29213;50.770;7.298;2022-08-03T01:53:06;4.63;;;2.30;;
43620;SDS011;29213;50.770;7.298;2022-08-03T01:55:33;3.47;;;2.20;;
43620;SDS011;29213;50.770;7.298;2022-08-03T01:58:01;2.92;;;2.10;;
43620;SDS011;29213;50.770;7.298;2022-08-03T02:00:29;2.83;;;1.98;;
43620;SDS011;29213;50.770;7.298;2022-08-03T02:02:56;3.90;;;2.30;;
43620;SDS011;29213;50.770;7.298;2022-08-03T02:05:22;4.47;;;2.55;;
43620;SDS011;29213;50.770;7.298;2022-08-03T02:07:48;4.05;;;2.30;;
43620;SDS011;29213;50.770;7.298;2022-08-03T02:10:15;3.92;;;2.10;;
43620;SDS011;29213;50.770;7.298;2022-08-03T02:12:44;4.20;;;2.30;;
43620;SDS011;29213;50.770;7.298;2022-08-03T02:15:10;3.30;;;1.83;;
43620;SDS011;29213;50.770;7.298;2022-08-03T02:17:36;4.43;;;2.25;;
43620;SDS011;29213;50.770;7.298;2022-08-03T02:20:02;3.30;;;2.10;;
43620;SDS011;29213;50.770;7.298;2022-08-03T02:22:30;3.92;;;2.00;;
43620;SDS011;29213;50.770;7.298;2022-08-03T02:24:57;2.88;;;1.90;;
43620;SDS011;29213;50.770;7.298;2022-08-03T02:27:25;3.63;;;2.05;;
43620;SDS011;29213;50.770;7.298;2022-08-03T02:30:01;3.63;;;2.30;;
43620;SDS011;29213;50.770;7.298;2022-08-03T02:32:36;3.22;;;2.00;;
43620;SDS011;29213;50.770;7.298;2022-08-03T02:35:13;4.15;;;2.03;;
43620;SDS011;29213;50.770;7.298;2022-08-03T02:37:42;3.38;;;2.25;;
43620;SDS011;29213;50.770;7.298;2022-08-03T02:40:11;3.10;;;2.00;;
43620;SDS011;29213;50.770;7.298;2022-08-03T02:42:39;3.00;;;1.90;;
43620;SDS011;29213;50.770;7.298;2022-08-03T02:45:06;3.40;;;2.17;;
43620;SDS011;29213;50.770;7.298;2022-08-03T02:47:38;3.22;;;1.98;;
43620;SDS011;29213;50.770;7.298;2022-08-03T02:50:06;3.38;;;2.13;;
43620;SDS011;29213;50.770;7.298;2022-08-03T02:52:37;3.70;;;2.10;;
43620;SDS011;29213;50.770;7.298;2022-08-03T02:55:04;3.50;;;2.08;;
43620;SDS011;29213;50.770;7.298;2022-08-03T02:57:34;3.80;;;2.33;;
43620;SDS011;29213;50.770;7.298;2022-08-03T03:00:01;3.75;;;2.38;;
43620;SDS011;29213;50.770;7.298;2022-08-03T03:02:28;3.40;;;2.10;;
43620;SDS011;29213;50.770;7.298;2022-08-03T03:04:54;3.97;;;2.20;;
43620;SDS011;29213;50.770;7.298;2022-08-03T03:07:20;3.80;;;2.00;;
43620;SDS011;29213;50.770;7.298;2022-08-03T03:09:46;3.88;;;2.25;;
43620;SDS011;29213;50.770;7.298;2022-08-03T03:12:12;3.28;;;2.42;;
43620;SDS011;29213;50.770;7.298;2022-08-03T03:14:38;3.75;;;2.53;;
43620;SDS011;29213;50.770;7.298;2022-08-03T03:17:08;3.70;;;2.30;;
43620;SDS011;29213;50.770;7.298;2022-08-03T03:19:35;3.88;;;2.50;;
43620;SDS011;29213;50.770;7.298;2022-08-03T03:22:02;3.25;;;2.13;;
43620;SDS011;29213;50.770;7.298;2022-08-03T03:24:30;4.22;;;2.35;;
43620;SDS011;29213;50.770;7.298;2022-08-03T03:26:57;3.47;;;2.20;;
43620;SDS011;29213;50.770;7.298;2022-08-03T03:29:23;4.25;;;2.50;;
43620;SDS011;29213;50.770;7.298;2022-08-03T03:31:48;3.92;;;2.08;;
43620;SDS011;29213;50.770;7.298;2022-08-03T03:34:14;5.20;;;2.20;;
43620;SDS011;29213;50.770;7.298;2022-08-03T03:36:40;3.00;;;2.20;;
43620;SDS011;29213;50.770;7.298;2022-08-03T03:39:06;3.60;;;2.15;;
43620;SDS011;29213;50.770;7.298;2022-08-03T03:41:31;2.85;;;1.90;;
43620;SDS011;29213;50.770;7.298;2022-08-03T03:43:57;3.40;;;2.20;;
43620;SDS011;29213;50.770;7.298;2022-08-03T03:46:23;3.38;;;2.38;;
43620;SDS011;29213;50.770;7.298;2022-08-03T03:48:48;3.67;;;2.30;;
43620;SDS011;29213;50.770;7.298;2022-08-03T03:51:14;3.40;;;2.08;;
43620;SDS011;29213;50.770;7.298;2022-08-03T03:53:41;3.80;;;2.45;;
43620;SDS011;29213;50.770;7.298;2022-08-03T03:56:18;3.65;;;2.30;;
43620;SDS011;29213;50.770;7.298;2022-08-03T03:58:44;3.47;;;2.45;;
43620;SDS011;29213;50.770;7.298;2022-08-03T04:01:09;3.65;;;2.33;;
43620;SDS011;29213;50.770;7.298;2022-08-03T04:03:37;3.25;;;2.05;;
43620;SDS011;29213;50.770;7.298;2022-08-03T04:06:02;3.20;;;2.20;;
43620;SDS011;29213;50.770;7.298;2022-08-03T04:08:46;3.17;;;2.05;;
43620;SDS011;29213;50.770;7.298;2022-08-03T04:11:33;3.17;;;2.20;;
43620;SDS011;29213;50.770;7.298;2022-08-03T04:16:56;3.65;;;2.30;;
43620;SDS011;29213;50.770;7.298;2022-08-03T04:19:27;4.55;;;2.38;;
43620;SDS011;29213;50.770;7.298;2022-08-03T04:22:01;5.00;;;2.38;;
43620;SDS011;29213;50.770;7.298;2022-08-03T04:24:37;3.95;;;2.50;;
43620;SDS011;29213;50.770;7.298;2022-08-03T04:27:06;3.70;;;2.35;;
43620;SDS011;29213;50.770;7.298;2022-08-03T04:29:36;3.70;;;2.42;;
43620;SDS011;29213;50.770;7.298;2022-08-03T04:32:04;4.00;;;2.50;;
43620;SDS011;29213;50.770;7.298;2022-08-03T04:34:32;3.63;;;2.33;;
43620;SDS011;29213;50.770;7.298;2022-08-03T04:36:58;3.20;;;2.10;;
43620;SDS011;29213;50.770;7.298;2022-08-03T04:39:26;3.67;;;2.55;;
43620;SDS011;29213;50.770;7.298;2022-08-03T04:41:54;3.50;;;2.15;;
43620;SDS011;29213;50.770;7.298;2022-08-03T04:44:23;3.22;;;2.30;;
43620;SDS011;29213;50.770;7.298;2022-08-03T04:46:49;3.50;;;2.53;;
43620;SDS011;29213;50.770;7.298;2022-08-03T04:49:16;3.60;;;2.38;;
43620;SDS011;29213;50.770;7.298;2022-08-03T04:51:42;2.72;;;2.00;;
43620;SDS011;29213;50.770;7.298;2022-08-03T04:54:12;3.00;;;2.00;;
43620;SDS011;29213;50.770;7.298;2022-08-03T04:56:38;3.40;;;2.40;;
43620;SDS011;29213;50.770;7.298;2022-08-03T04:59:05;3.13;;;2.17;;
43620;SDS011;29213;50.770;7.298;2022-08-03T05:01:31;4.68;;;2.50;;
43620;SDS011;29213;50.770;7.298;2022-08-03T05:03:56;3.35;;;2.28;;
43620;SDS011;29213;50.770;7.298;2022-08-03T05:06:22;4.20;;;2.65;;
43620;SDS011;29213;50.770;7.298;2022-08-03T05:08:47;3.65;;;2.25;;
43620;SDS011;29213;50.770;7.298;2022-08-03T05:11:13;4.65;;;2.53;;
43620;SDS011;29213;50.770;7.298;2022-08-03T05:13:39;4.40;;;2.45;;
43620;SDS011;29213;50.770;7.298;2022-08-03T05:16:05;3.80;;;2.70;;
43620;SDS011;29213;50.770;7.298;2022-08-03T05:18:30;5.00;;;2.35;;
43620;SDS011;29213;50.770;7.298;2022-08-03T05:20:56;4.88;;;2.50;;
43620;SDS011;29213;50.770;7.298;2022-08-03T05:23:21;3.42;;;2.30;;
43620;SDS011;29213;50.770;7.298;2022-08-03T05:25:47;5.00;;;2.20;;
43620;SDS011;29213;50.770;7.298;2022-08-03T05:28:12;3.58;;;2.22;;
43620;SDS011;29213;50.770;7.298;2022-08-03T05:30:37;3.83;;;2.35;;
43620;SDS011;29213;50.770;7.298;2022-08-03T05:33:03;3.58;;;2.30;;
43620;SDS011;29213;50.770;7.298;2022-08-03T05:35:29;4.85;;;2.55;;
43620;SDS011;29213;50.770;7.298;2022-08-03T05:37:55;3.05;;;1.98;;
43620;SDS011;29213;50.770;7.298;2022-08-03T05:40:20;3.30;;;2.30;;
43620;SDS011;29213;50.770;7.298;2022-08-03T05:42:46;4.30;;;2.60;;
43620;SDS011;29213;50.770;7.298;2022-08-03T05:45:11;4.63;;;2.35;;
43620;SDS011;29213;50.770;7.298;2022-08-03T05:47:41;4.03;;;2.60;;
43620;SDS011;29213;50.770;7.298;2022-08-03T05:50:09;4.47;;;2.72;;
43620;SDS011;29213;50.770;7.298;2022-08-03T05:52:38;6.03;;;3.10;;
43620;SDS011;29213;50.770;7.298;2022-08-03T05:55:07;5.55;;;2.85;;
43620;SDS011;29213;50.770;7.298;2022-08-03T05:57:33;5.05;;;3.00;;
43620;SDS011;29213;50.770;7.298;2022-08-03T05:59:59;4.82;;;2.80;;
43620;SDS011;29213;50.770;7.298;2022-08-03T06:02:25;4.10;;;2.58;;
43620;SDS011;29213;50.770;7.298;2022-08-03T06:04:51;4.07;;;2.90;;
43620;SDS011;29213;50.770;7.298;2022-08-03T06:07:16;4.28;;;2.90;;
43620;SDS011;29213;50.770;7.298;2022-08-03T06:09:42;4.20;;;2.80;;
43620;SDS011;29213;50.770;7.298;2022-08-03T06:12:08;6.30;;;2.75;;
43620;SDS011;29213;50.770;7.298;2022-08-03T06:14:33;4.10;;;2.88;;
43620;SDS011;29213;50.770;7.298;2022-08-03T06:16:59;3.30;;;2.55;;
43620;SDS011;29213;50.770;7.298;2022-08-03T06:19:24;3.88;;;3.05;;
43620;SDS011;29213;50.770;7.298;2022-08-03T06:21:51;5.93;;;2.97;;
43620;SDS011;29213;50.770;7.298;2022-08-03T06:24:17;5.00;;;2.80;;
43620;SDS011;29213;50.770;7.298;2022-08-03T06:26:42;5.30;;;2.75;;
43620;SDS011;29213;50.770;7.298;2022-08-03T06:29:07;3.33;;;2.30;;
43620;SDS011;29213;50.770;7.298;2022-08-03T06:31:33;4.88;;;2.30;;
43620;SDS011;29213;50.770;7.298;2022-08-03T06:33:58;3.90;;;2.60;;
43620;SDS011;29213;50.770;7.298;2022-08-03T06:36:24;4.30;;;2.70;;
43620;SDS011;29213;50.770;7.298;2022-08-03T06:38:55;4.10;;;2.40;;
43620;SDS011;29213;50.770;7.298;2022-08-03T06:41:24;3.85;;;2.95;;
43620;SDS011;29213;50.770;7.298;2022-08-03T06:43:50;3.33;;;2.30;;
43620;SDS011;29213;50.770;7.298;2022-08-03T06:46:15;4.05;;;2.38;;
43620;SDS011;29213;50.770;7.298;2022-08-03T06:48:41;3.65;;;2.75;;
43620;SDS011;29213;50.770;7.298;2022-08-03T06:51:06;4.88;;;2.72;;
43620;SDS011;29213;50.770;7.298;2022-08-03T06:53:32;4.07;;;2.90;;
43620;SDS011;29213;50.770;7.298;2022-08-03T06:55:57;3.75;;;2.60;;
43620;SDS011;29213;50.770;7.298;2022-08-03T06:58:23;3.63;;;2.40;;
43620;SDS011;29213;50.770;7.298;2022-08-03T07:00:48;4.47;;;2.70;;
43620;SDS011;29213;50.770;7.298;2022-08-03T07:03:14;4.18;;;2.20;;
43620;SDS011;29213;50.770;7.298;2022-08-03T07:05:40;4.22;;;2.45;;
43620;SDS011;29213;50.770;7.298;2022-08-03T07:08:06;4.57;;;2.70;;
43620;SDS011;29213;50.770;7.298;2022-08-03T07:10:32;3.83;;;2.28;;
43620;SDS011;29213;50.770;7.298;2022-08-03T07:12:57;4.70;;;2.60;;
43620;SDS011;29213;50.770;7.298;2022-08-03T07:15:23;3.53;;;2.20;;
43620;SDS011;29213;50.770;7.298;2022-08-03T07:17:49;2.97;;;2.03;;
43620;SDS011;29213;50.770;7.298;2022-08-03T07:20:15;3.72;;;2.20;;
43620;SDS011;29213;50.770;7.298;2022-08-03T07:22:42;4.25;;;2.78;;
43620;SDS011;29213;50.770;7.298;2022-08-03T07:25:08;3.80;;;2.38;;
43620;SDS011;29213;50.770;7.298;2022-08-03T07:27:34;4.95;;;2.58;;
43620;SDS011;29213;50.770;7.298;2022-08-03T07:30:01;3.35;;;2.30;;
43620;SDS011;29213;50.770;7.298;2022-08-03T07:32:30;3.20;;;2.00;;
43620;SDS011;29213;50.770;7.298;2022-08-03T07:34:56;3.45;;;2.20;;
43620;SDS011;29213;50.770;7.298;2022-08-03T07:37:24;5.22;;;2.42;;
43620;SDS011;29213;50.770;7.298;2022-08-03T07:39:49;3.95;;;2.55;;
43620;SDS011;29213;50.770;7.298;2022-08-03T07:42:15;4.85;;;2.40;;
43620;SDS011;29213;50.770;7.298;2022-08-03T07:44:40;3.63;;;2.10;;
43620;SDS011;29213;50.770;7.298;2022-08-03T07:47:06;2.92;;;2.08;;
43620;SDS011;29213;50.770;7.298;2022-08-03T07:49:31;3.00;;;1.95;;
43620;SDS011;29213;50.770;7.298;2022-08-03T07:51:56;3.83;;;2.20;;
43620;SDS011;29213;50.770;7.298;2022-08-03T07:54:44;4.32;;;2.10;;
43620;SDS011;29213;50.770;7.298;2022-08-03T07:57:09;4.57;;;2.10;;
43620;SDS011;29213;50.770;7.298;2022-08-03T07:59:35;3.00;;;2.13;;
43620;SDS011;29213;50.770;7.298;2022-08-03T08:02:02;2.75;;;1.70;;
43620;SDS011;29213;50.770;7.298;2022-08-03T08:04:27;3.10;;;2.10;;
43620;SDS011;29213;50.770;7.298;2022-08-03T08:06:53;4.22;;;2.30;;
43620;SDS011;29213;50.770;7.298;2022-08-03T08:09:18;3.97;;;2.08;;
43620;SDS011;29213;50.770;7.298;2022-08-03T08:11:43;4.13;;;2.20;;
43620;SDS011;29213;50.770;7.298;2022-08-03T08:14:09;4.15;;;2.08;;
43620;SDS011;29213;50.770;7.298;2022-08-03T08:16:34;3.00;;;1.90;;
43620;SDS011;29213;50.770;7.298;2022-08-03T08:19:00;3.33;;;1.80;;
43620;SDS011;29213;50.770;7.298;2022-08-03T08:21:26;3.05;;;1.80;;
43620;SDS011;29213;50.770;7.298;2022-08-03T08:23:51;2.97;;;1.75;;
43620;SDS011;29213;50.770;7.298;2022-08-03T08:26:17;3.22;;;1.90;;
43620;SDS011;29213;50.770;7.298;2022-08-03T08:28:42;2.92;;;1.80;;
43620;SDS011;29213;50.770;7.298;2022-08-03T08:31:08;3.83;;;2.08;;
43620;SDS011;29213;50.770;7.298;2022-08-03T08:33:33;4.50;;;1.85;;
43620;SDS011;29213;50.770;7.298;2022-08-03T08:36:00;3.80;;;2.15;;
43620;SDS011;29213;50.770;7.298;2022-08-03T08:38:25;3.58;;;1.85;;
43620;SDS011;29213;50.770;7.298;2022-08-03T08:40:53;2.80;;;1.63;;
43620;SDS011;29213;50.770;7.298;2022-08-03T08:43:19;2.38;;;1.60;;
43620;SDS011;29213;50.770;7.298;2022-08-03T08:45:47;2.60;;;1.60;;
43620;SDS011;29213;50.770;7.298;2022-08-03T08:48:16;3.97;;;1.63;;
43620;SDS011;29213;50.770;7.298;2022-08-03T08:50:46;2.65;;;1.50;;
43620;SDS011;29213;50.770;7.298;2022-08-03T08:53:13;3.30;;;1.70;;
43620;SDS011;29213;50.770;7.298;2022-08-03T08:55:39;2.95;;;1.60;;
43620;SDS011;29213;50.770;7.298;2022-08-03T08:58:06;2.97;;;1.60;;
43620;SDS011;29213;50.770;7.298;2022-08-03T09:00:34;3.70;;;2.00;;
43620;SDS011;29213;50.770;7.298;2022-08-03T09:02:59;2.90;;;1.75;;
43620;SDS011;29213;50.770;7.298;2022-08-03T09:05:25;5.68;;;2.30;;
43620;SDS011;29213;50.770;7.298;2022-08-03T09:07:52;3.72;;;1.75;;
43620;SDS011;29213;50.770;7.298;2022-08-03T09:10:18;2.80;;;1.90;;
43620;SDS011;29213;50.770;7.298;2022-08-03T09:12:46;3.03;;;1.42;;
43620;SDS011;29213;50.770;7.298;2022-08-03T09:17:43;3.55;;;1.67;;
43620;SDS011;29213;50.770;7.298;2022-08-03T09:20:09;2.97;;;1.75;;
43620;SDS011;29213;50.770;7.298;2022-08-03T09:22:35;3.83;;;1.55;;
43620;SDS011;29213;50.770;7.298;2022-08-03T09:25:15;3.05;;;1.35;;
43620;SDS011;29213;50.770;7.298;2022-08-03T09:27:43;2.33;;;1.25;;
43620;SDS011;29213;50.770;7.298;2022-08-03T09:30:13;2.08;;;1.13;;
43620;SDS011;29213;50.770;7.298;2022-08-03T09:32:40;2.22;;;1.20;;
43620;SDS011;29213;50.770;7.298;2022-08-03T09:35:06;3.47;;;1.40;;
43620;SDS011;29213;50.770;7.298;2022-08-03T09:37:32;2.80;;;1.40;;
43620;SDS011;29213;50.770;7.298;2022-08-03T09:39:57;2.10;;;1.20;;
43620;SDS011;29213;50.770;7.298;2022-08-03T09:42:23;2.25;;;1.20;;
43620;SDS011;29213;50.770;7.298;2022-08-03T09:44:49;2.22;;;1.27;;
43620;SDS011;29213;50.770;7.298;2022-08-03T09:47:37;2.63;;;1.17;;
43620;SDS011;29213;50.770;7.298;2022-08-03T09:50:05;2.38;;;1.25;;
43620;SDS011;29213;50.770;7.298;2022-08-03T09:52:33;2.97;;;1.20;;
43620;SDS011;29213;50.770;7.298;2022-08-03T09:55:07;2.80;;;1.50;;
43620;SDS011;29213;50.770;7.298;2022-08-03T09:57:33;2.55;;;1.13;;
43620;SDS011;29213;50.770;7.298;2022-08-03T10:00:06;2.13;;;1.10;;
43620;SDS011;29213;50.770;7.298;2022-08-03T10:02:37;2.13;;;1.20;;
43620;SDS011;29213;50.770;7.298;2022-08-03T10:05:04;2.33;;;1.30;;
43620;SDS011;29213;50.770;7.298;2022-08-03T10:07:40;2.17;;;1.17;;
43620;SDS011;29213;50.770;7.298;2022-08-03T10:10:07;2.72;;;1.50;;
43620;SDS011;29213;50.770;7.298;2022-08-03T10:12:34;3.70;;;2.40;;
43620;SDS011;29213;50.770;7.298;2022-08-03T10:15:01;4.45;;;1.60;;
43620;SDS011;29213;50.770;7.298;2022-08-03T10:17:26;3.53;;;1.48;;
43620;SDS011;29213;50.770;7.298;2022-08-03T10:19:52;2.42;;;1.20;;
43620;SDS011;29213;50.770;7.298;2022-08-03T10:22:20;2.70;;;1.40;;
43620;SDS011;29213;50.770;7.298;2022-08-03T10:24:52;2.42;;;1.17;;
43620;SDS011;29213;50.770;7.298;2022-08-03T10:27:19;2.53;;;1.30;;
43620;SDS011;29213;50.770;7.298;2022-08-03T10:29:51;2.42;;;1.20;;
43620;SDS011;29213;50.770;7.298;2022-08-03T10:32:42;2.78;;;1.23;;
43620;SDS011;29213;50.770;7.298;2022-08-03T10:35:20;2.85;;;1.20;;
43620;SDS011;29213;50.770;7.298;2022-08-03T10:40:15;3.70;;;1.23;;
43620;SDS011;29213;50.770;7.298;2022-08-03T10:42:45;3.00;;;1.10;;
43620;SDS011;29213;50.770;7.298;2022-08-03T10:45:14;2.53;;;1.30;;
43620;SDS011;29213;50.770;7.298;2022-08-03T10:47:43;2.55;;;1.20;;
43620;SDS011;29213;50.770;7.298;2022-08-03T10:50:09;4.25;;;1.20;;
43620;SDS011;29213;50.770;7.298;2022-08-03T10:52:52;3.42;;;1.40;;
43620;SDS011;29213;50.770;7.298;2022-08-03T10:55:42;3.25;;;1.48;;
43620;SDS011;29213;50.770;7.298;2022-08-03T11:01:09;2.40;;;1.23;;
43620;SDS011;29213;50.770;7.298;2022-08-03T11:06:17;2.45;;;1.20;;
43620;SDS011;29213;50.770;7.298;2022-08-03T11:08:44;2.20;;;1.20;;
43620;SDS011;29213;50.770;7.298;2022-08-03T11:11:32;2.80;;;1.45;;
43620;SDS011;29213;50.770;7.298;2022-08-03T11:16:44;2.88;;;1.30;;
43620;SDS011;29213;50.770;7.298;2022-08-03T11:19:17;3.22;;;1.40;;
43620;SDS011;29213;50.770;7.298;2022-08-03T11:29:38;2.88;;;1.30;;
43620;SDS011;29213;50.770;7.298;2022-08-03T11:37:34;2.60;;;1.13;;
43620;SDS011;29213;50.770;7.298;2022-08-03T11:40:00;3.67;;;1.38;;
43620;SDS011;29213;50.770;7.298;2022-08-03T11:44:56;3.13;;;1.58;;
43620;SDS011;29213;50.770;7.298;2022-08-03T11:47:24;2.70;;;1.40;;
43620;SDS011;29213;50.770;7.298;2022-08-03T11:49:55;3.75;;;1.30;;
43620;SDS011;29213;50.770;7.298;2022-08-03T11:52:26;2.88;;;1.20;;
43620;SDS011;29213;50.770;7.298;2022-08-03T11:54:58;3.05;;;1.20;;
43620;SDS011;29213;50.770;7.298;2022-08-03T11:57:28;2.72;;;1.40;;
43620;SDS011;29213;50.770;7.298;2022-08-03T11:59:57;2.90;;;1.10;;
43620;SDS011;29213;50.770;7.298;2022-08-03T12:02:23;3.85;;;1.40;;
43620;SDS011;29213;50.770;7.298;2022-08-03T12:04:52;4.53;;;1.58;;
43620;SDS011;29213;50.770;7.298;2022-08-03T12:07:26;2.60;;;1.40;;
43620;SDS011;29213;50.770;7.298;2022-08-03T12:12:30;2.22;;;1.30;;
43620;SDS011;29213;50.770;7.298;2022-08-03T12:14:55;3.42;;;1.50;;
43620;SDS011;29213;50.770;7.298;2022-08-03T12:17:22;3.22;;;1.27;;
43620;SDS011;29213;50.770;7.298;2022-08-03T12:19:48;2.50;;;1.23;;
43620;SDS011;29213;50.770;7.298;2022-08-03T12:22:13;4.13;;;1.60;;
43620;SDS011;29213;50.770;7.298;2022-08-03T12:24:43;2.10;;;1.05;;
43620;SDS011;29213;50.770;7.298;2022-08-03T12:27:09;5.57;;;1.10;;
43620;SDS011;29213;50.770;7.298;2022-08-03T12:29:34;2.53;;;1.10;;
43620;SDS011;29213;50.770;7.298;2022-08-03T12:32:00;3.70;;;1.17;;
43620;SDS011;29213;50.770;7.298;2022-08-03T12:34:47;2.75;;;1.10;;
43620;SDS011;29213;50.770;7.298;2022-08-03T12:37:17;2.83;;;1.20;;
43620;SDS011;29213;50.770;7.298;2022-08-03T12:39:48;2.80;;;1.40;;
43620;SDS011;29213;50.770;7.298;2022-08-03T12:42:17;2.80;;;1.50;;
43620;SDS011;29213;50.770;7.298;2022-08-03T12:44:44;2.35;;;1.23;;
43620;SDS011;29213;50.770;7.298;2022-08-03T12:47:15;3.95;;;1.30;;
43620;SDS011;29213;50.770;7.298;2022-08-03T12:49:47;2.10;;;1.15;;
43620;SDS011;29213;50.770;7.298;2022-08-03T12:52:13;2.08;;;1.10;;
43620;SDS011;29213;50.770;7.298;2022-08-03T12:54:40;2.35;;;1.25;;
43620;SDS011;29213;50.770;7.298;2022-08-03T12:57:07;3.50;;;1.40;;
43620;SDS011;29213;50.770;7.298;2022-08-03T13:04:42;3.45;;;1.30;;
43620;SDS011;29213;50.770;7.298;2022-08-03T13:07:09;2.63;;;1.40;;
43620;SDS011;29213;50.770;7.298;2022-08-03T13:09:43;3.90;;;1.73;;
43620;SDS011;29213;50.770;7.298;2022-08-03T13:12:10;2.85;;;1.42;;
43620;SDS011;29213;50.770;7.298;2022-08-03T13:14:36;4.18;;;1.30;;
43620;SDS011;29213;50.770;7.298;2022-08-03T13:17:02;2.67;;;1.42;;
43620;SDS011;29213;50.770;7.298;2022-08-03T13:19:28;2.88;;;1.20;;
43620;SDS011;29213;50.770;7.298;2022-08-03T13:21:53;3.13;;;1.30;;
43620;SDS011;29213;50.770;7.298;2022-08-03T13:24:19;3.28;;;1.50;;
43620;SDS011;29213;50.770;7.298;2022-08-03T13:26:44;3.70;;;1.65;;
43620;SDS011;29213;50.770;7.298;2022-08-03T13:29:10;4.88;;;1.70;;
43620;SDS011;29213;50.770;7.298;2022-08-03T13:31:35;3.30;;;1.80;;
43620;SDS011;29213;50.770;7.298;2022-08-03T13:34:01;3.10;;;1.60;;
43620;SDS011;29213;50.770;7.298;2022-08-03T13:36:26;3.60;;;1.60;;
43620;SDS011;29213;50.770;7.298;2022-08-03T13:38:51;2.17;;;1.20;;
43620;SDS011;29213;50.770;7.298;2022-08-03T13:41:17;3.20;;;1.60;;
43620;SDS011;29213;50.770;7.298;2022-08-03T13:43:42;3.45;;;1.70;;
43620;SDS011;29213;50.770;7.298;2022-08-03T13:46:08;3.45;;;1.40;;
43620;SDS011;29213;50.770;7.298;2022-08-03T13:48:33;2.83;;;1.30;;
43620;SDS011;29213;50.770;7.298;2022-08-03T13:50:59;2.47;;;1.33;;
43620;SDS011;29213;50.770;7.298;2022-08-03T13:53:24;3.53;;;1.50;;
43620;SDS011;29213;50.770;7.298;2022-08-03T13:55:50;3.00;;;1.50;;
43620;SDS011;29213;50.770;7.298;2022-08-03T13:58:15;2.20;;;1.20;;
43620;SDS011;29213;50.770;7.298;2022-08-03T14:00:40;3.78;;;1.88;;
43620;SDS011;29213;50.770;7.298;2022-08-03T14:03:06;3.20;;;1.50;;
43620;SDS011;29213;50.770;7.298;2022-08-03T14:05:32;2.70;;;1.50;;
43620;SDS011;29213;50.770;7.298;2022-08-03T14:07:59;3.25;;;1.40;;
43620;SDS011;29213;50.770;7.298;2022-08-03T14:10:25;4.53;;;1.40;;
43620;SDS011;29213;50.770;7.298;2022-08-03T14:12:51;3.83;;;1.40;;
43620;SDS011;29213;50.770;7.298;2022-08-03T14:15:16;3.13;;;1.30;;
43620;SDS011;29213;50.770;7.298;2022-08-03T14:17:42;3.67;;;1.55;;
43620;SDS011;29213;50.770;7.298;2022-08-03T14:20:07;3.03;;;1.50;;
43620;SDS011;29213;50.770;7.298;2022-08-03T14:22:33;4.57;;;1.40;;
43620;SDS011;29213;50.770;7.298;2022-08-03T14:24:59;2.40;;;1.20;;
43620;SDS011;29213;50.770;7.298;2022-08-03T14:27:25;3.72;;;1.55;;
43620;SDS011;29213;50.770;7.298;2022-08-03T14:29:51;3.75;;;1.63;;
43620;SDS011;29213;50.770;7.298;2022-08-03T14:32:16;3.33;;;1.55;;
43620;SDS011;29213;50.770;7.298;2022-08-03T14:37:10;3.78;;;1.50;;
43620;SDS011;29213;50.770;7.298;2022-08-03T14:39:35;2.65;;;1.33;;
43620;SDS011;29213;50.770;7.298;2022-08-03T14:42:00;3.10;;;1.23;;
43620;SDS011;29213;50.770;7.298;2022-08-03T14:44:26;2.97;;;1.38;;
43620;SDS011;29213;50.770;7.298;2022-08-03T14:46:51;3.00;;;1.10;;
43620;SDS011;29213;50.770;7.298;2022-08-03T14:49:17;2.65;;;1.30;;
43620;SDS011;29213;50.770;7.298;2022-08-03T14:51:42;3.30;;;1.42;;
43620;SDS011;29213;50.770;7.298;2022-08-03T14:54:07;3.58;;;1.20;;
43620;SDS011;29213;50.770;7.298;2022-08-03T14:56:33;5.90;;;1.60;;
43620;SDS011;29213;50.770;7.298;2022-08-03T14:58:58;2.85;;;1.30;;
43620;SDS011;29213;50.770;7.298;2022-08-03T15:01:24;3.88;;;1.40;;
43620;SDS011;29213;50.770;7.298;2022-08-03T15:03:49;4.35;;;1.20;;
43620;SDS011;29213;50.770;7.298;2022-08-03T15:06:14;3.30;;;1.20;;
43620;SDS011;29213;50.770;7.298;2022-08-03T15:08:40;3.75;;;1.40;;
43620;SDS011;29213;50.770;7.298;2022-08-03T15:11:05;3.42;;;1.30;;
43620;SDS011;29213;50.770;7.298;2022-08-03T15:13:31;3.65;;;1.30;;
43620;SDS011;29213;50.770;7.298;2022-08-03T15:15:56;2.55;;;1.20;;
43620;SDS011;29213;50.770;7.298;2022-08-03T15:18:22;2.28;;;1.20;;
43620;SDS011;29213;50.770;7.298;2022-08-03T15:20:47;2.30;;;1.20;;
43620;SDS011;29213;50.770;7.298;2022-08-03T15:23:15;3.38;;;1.38;;
43620;SDS011;29213;50.770;7.298;2022-08-03T15:25:42;3.00;;;1.33;;
43620;SDS011;29213;50.770;7.298;2022-08-03T15:28:08;4.45;;;1.27;;
43620;SDS011;29213;50.770;7.298;2022-08-03T15:30:34;4.25;;;1.70;;
43620;SDS011;29213;50.770;7.298;2022-08-03T15:33:01;2.67;;;1.30;;
43620;SDS011;29213;50.770;7.298;2022-08-03T15:35:27;2.28;;;1.10;;
43620;SDS011;29213;50.770;7.298;2022-08-03T15:37:53;2.55;;;1.10;;
43620;SDS011;29213;50.770;7.298;2022-08-03T15:40:18;2.78;;;1.30;;
43620;SDS011;29213;50.770;7.298;2022-08-03T15:42:44;3.33;;;1.35;;
43620;SDS011;29213;50.770;7.298;2022-08-03T15:45:09;2.55;;;1.25;;